sensor_id;sensor_type;location;lat;lon;timestamp;temperature;humidity
65470;DHT22;52067;50.710;14.492;2022-10-16T00:02:05;14.83;90.13
65470;DHT22;52067;50.710;14.492;2022-10-16T00:04:30;14.52;90.59
65470;DHT22;52067;50.710;14.492;2022-10-16T00:06:56;14.28;91.54
65470;DHT22;52067;50.710;14.492;2022-10-16T00:09:21;14.25;91.47
65470;DHT22;52067;50.710;14.492;2022-10-16T00:11:46;14.39;91.23
65470;DHT22;52067;50.710;14.492;2022-10-16T00:14:12;14.53;90.96
65470;DHT22;52067;50.710;14.492;2022-10-16T00:16:38;14.35;90.73
65470;DHT22;52067;50.710;14.492;2022-10-16T00:19:04;14.35;90.63
65470;DHT22;52067;50.710;14.492;2022-10-16T00:21:29;14.24;91.79
65470;DHT22;52067;50.710;14.492;2022-10-16T00:23:56;14.26;91.25
65470;DHT22;52067;50.710;14.492;2022-10-16T00:26:21;14.38;91.41
65470;DHT22;52067;50.710;14.492;2022-10-16T00:28:48;14.20;91.94
65470;DHT22;52067;50.710;14.492;2022-10-16T00:31:13;14.32;91.74
65470;DHT22;52067;50.710;14.492;2022-10-16T00:33:39;14.36;91.59
65470;DHT22;52067;50.710;14.492;2022-10-16T00:36:05;14.35;91.36
65470;DHT22;52067;50.710;14.492;2022-10-16T00:38:31;14.20;91.52
65470;DHT22;52067;50.710;14.492;2022-10-16T00:40:57;14.35;91.29
65470;DHT22;52067;50.710;14.492;2022-10-16T00:43:32;14.29;90.97
65470;DHT22;52067;50.710;14.492;2022-10-16T00:45:58;14.38;91.23
65470;DHT22;52067;50.710;14.492;2022-10-16T00:48:24;14.42;91.07
65470;DHT22;52067;50.710;14.492;2022-10-16T00:50:49;14.55;90.87
65470;DHT22;52067;50.710;14.492;2022-10-16T00:53:14;14.60;90.59
65470;DHT22;52067;50.710;14.492;2022-10-16T00:55:41;14.52;90.72
65470;DHT22;52067;50.710;14.492;2022-10-16T00:58:06;14.24;91.06
65470;DHT22;52067;50.710;14.492;2022-10-16T01:00:32;14.18;91.71
65470;DHT22;52067;50.710;14.492;2022-10-16T01:02:58;14.35;91.58
65470;DHT22;52067;50.710;14.492;2022-10-16T01:05:31;14.46;91.31
65470;DHT22;52067;50.710;14.492;2022-10-16T01:08:01;14.41;90.78
65470;DHT22;52067;50.710;14.492;2022-10-16T01:10:50;14.48;90.72
65470;DHT22;52067;50.710;14.492;2022-10-16T01:13:21;14.39;90.49
65470;DHT22;52067;50.710;14.492;2022-10-16T01:16:00;14.28;90.54
65470;DHT22;52067;50.710;14.492;2022-10-16T01:18:31;14.07;91.20
65470;DHT22;52067;50.710;14.492;2022-10-16T01:21:05;14.07;92.19
65470;DHT22;52067;50.710;14.492;2022-10-16T01:31:16;14.11;91.58
65470;DHT22;52067;50.710;14.492;2022-10-16T01:33:44;14.14;91.32
65470;DHT22;52067;50.710;14.492;2022-10-16T01:36:15;14.18;91.19
65470;DHT22;52067;50.710;14.492;2022-10-16T01:38:41;13.94;91.37
65470;DHT22;52067;50.710;14.492;2022-10-16T01:41:09;14.05;91.55
65470;DHT22;52067;50.710;14.492;2022-10-16T01:43:36;13.64;91.91
65470;DHT22;52067;50.710;14.492;2022-10-16T01:46:03;13.85;91.95
65470;DHT22;52067;50.710;14.492;2022-10-16T01:48:28;13.84;91.72
65470;DHT22;52067;50.710;14.492;2022-10-16T01:51:13;14.04;91.61
65470;DHT22;52067;50.710;14.492;2022-10-16T01:53:39;13.95;91.48
65470;DHT22;52067;50.710;14.492;2022-10-16T01:56:07;14.05;91.45
65470;DHT22;52067;50.710;14.492;2022-10-16T01:58:34;14.14;91.11
65470;DHT22;52067;50.710;14.492;2022-10-16T02:01:01;14.20;90.95
65470;DHT22;52067;50.710;14.492;2022-10-16T02:03:27;14.25;90.80
65470;DHT22;52067;50.710;14.492;2022-10-16T02:08:17;13.81;91.35
65470;DHT22;52067;50.710;14.492;2022-10-16T02:10:43;14.02;91.60
65470;DHT22;52067;50.710;14.492;2022-10-16T02:13:19;13.70;91.81
65470;DHT22;52067;50.710;14.492;2022-10-16T02:15:47;13.57;92.65
65470;DHT22;52067;50.710;14.492;2022-10-16T02:18:12;13.56;92.98
65470;DHT22;52067;50.710;14.492;2022-10-16T02:20:55;13.59;92.86
65470;DHT22;52067;50.710;14.492;2022-10-16T02:25:57;13.50;93.14
65470;DHT22;52067;50.710;14.492;2022-10-16T02:28:24;13.60;92.95
65470;DHT22;52067;50.710;14.492;2022-10-16T02:30:53;13.56;93.02
65470;DHT22;52067;50.710;14.492;2022-10-16T02:33:19;13.64;93.08
65470;DHT22;52067;50.710;14.492;2022-10-16T02:35:46;13.74;92.87
65470;DHT22;52067;50.710;14.492;2022-10-16T02:38:12;13.54;92.74
65470;DHT22;52067;50.710;14.492;2022-10-16T02:40:39;13.69;92.70
65470;DHT22;52067;50.710;14.492;2022-10-16T02:43:04;13.75;92.59
65470;DHT22;52067;50.710;14.492;2022-10-16T02:45:30;13.85;92.38
65470;DHT22;52067;50.710;14.492;2022-10-16T02:47:55;13.94;92.17
65470;DHT22;52067;50.710;14.492;2022-10-16T02:50:20;13.97;91.84
65470;DHT22;52067;50.710;14.492;2022-10-16T02:52:46;13.94;91.83
65470;DHT22;52067;50.710;14.492;2022-10-16T02:55:11;13.93;91.91
65470;DHT22;52067;50.710;14.492;2022-10-16T02:57:36;14.10;92.08
65470;DHT22;52067;50.710;14.492;2022-10-16T03:00:03;14.12;91.74
65470;DHT22;52067;50.710;14.492;2022-10-16T03:02:29;14.17;91.63
65470;DHT22;52067;50.710;14.492;2022-10-16T03:04:54;14.33;91.59
65470;DHT22;52067;50.710;14.492;2022-10-16T03:07:19;14.32;91.41
65470;DHT22;52067;50.710;14.492;2022-10-16T03:09:44;14.35;91.10
65470;DHT22;52067;50.710;14.492;2022-10-16T03:12:10;14.48;90.82
65470;DHT22;52067;50.710;14.492;2022-10-16T03:14:36;14.56;90.36
65470;DHT22;52067;50.710;14.492;2022-10-16T03:17:02;14.46;90.28
65470;DHT22;52067;50.710;14.492;2022-10-16T03:19:27;14.56;90.24
65470;DHT22;52067;50.710;14.492;2022-10-16T03:21:52;14.55;89.92
65470;DHT22;52067;50.710;14.492;2022-10-16T03:24:17;14.45;90.11
65470;DHT22;52067;50.710;14.492;2022-10-16T03:26:43;14.48;90.09
65470;DHT22;52067;50.710;14.492;2022-10-16T03:29:08;14.49;90.23
65470;DHT22;52067;50.710;14.492;2022-10-16T03:31:33;14.48;90.25
65470;DHT22;52067;50.710;14.492;2022-10-16T03:33:58;14.49;90.20
65470;DHT22;52067;50.710;14.492;2022-10-16T03:36:24;14.49;90.08
65470;DHT22;52067;50.710;14.492;2022-10-16T03:38:49;14.60;89.99
65470;DHT22;52067;50.710;14.492;2022-10-16T03:41:14;14.48;90.19
65470;DHT22;52067;50.710;14.492;2022-10-16T03:43:40;14.41;90.05
65470;DHT22;52067;50.710;14.492;2022-10-16T03:46:05;14.26;90.79
65470;DHT22;52067;50.710;14.492;2022-10-16T03:48:30;14.36;90.76
65470;DHT22;52067;50.710;14.492;2022-10-16T03:50:57;14.51;90.46
65470;DHT22;52067;50.710;14.492;2022-10-16T03:53:22;14.42;90.40
65470;DHT22;52067;50.710;14.492;2022-10-16T03:55:47;14.52;90.26
65470;DHT22;52067;50.710;14.492;2022-10-16T03:58:12;14.53;90.20
65470;DHT22;52067;50.710;14.492;2022-10-16T04:00:44;14.56;90.20
65470;DHT22;52067;50.710;14.492;2022-10-16T04:03:10;14.51;90.15
65470;DHT22;52067;50.710;14.492;2022-10-16T04:05:35;14.51;90.11
65470;DHT22;52067;50.710;14.492;2022-10-16T04:08:00;14.42;90.11
65470;DHT22;52067;50.710;14.492;2022-10-16T04:10:25;14.53;90.36
65470;DHT22;52067;50.710;14.492;2022-10-16T04:12:51;14.32;90.62
65470;DHT22;52067;50.710;14.492;2022-10-16T04:15:16;14.43;90.57
65470;DHT22;52067;50.710;14.492;2022-10-16T04:17:42;14.31;90.51
65470;DHT22;52067;50.710;14.492;2022-10-16T04:20:07;13.71;92.28
65470;DHT22;52067;50.710;14.492;2022-10-16T04:22:33;14.00;92.27
65470;DHT22;52067;50.710;14.492;2022-10-16T04:24:58;13.91;91.61
65470;DHT22;52067;50.710;14.492;2022-10-16T04:27:23;14.01;92.06
65470;DHT22;52067;50.710;14.492;2022-10-16T04:29:49;14.14;91.67
65470;DHT22;52067;50.710;14.492;2022-10-16T04:32:14;14.08;91.52
65470;DHT22;52067;50.710;14.492;2022-10-16T04:34:39;14.18;91.62
65470;DHT22;52067;50.710;14.492;2022-10-16T04:37:05;14.31;91.35
65470;DHT22;52067;50.710;14.492;2022-10-16T04:39:30;14.26;91.17
65470;DHT22;52067;50.710;14.492;2022-10-16T04:41:55;14.18;91.35
65470;DHT22;52067;50.710;14.492;2022-10-16T04:44:21;14.15;91.39
65470;DHT22;52067;50.710;14.492;2022-10-16T04:46:46;14.26;91.21
65470;DHT22;52067;50.710;14.492;2022-10-16T04:49:11;14.17;91.02
65470;DHT22;52067;50.710;14.492;2022-10-16T04:51:37;14.15;91.62
65470;DHT22;52067;50.710;14.492;2022-10-16T04:54:02;14.14;91.17
65470;DHT22;52067;50.710;14.492;2022-10-16T04:56:27;14.05;91.12
65470;DHT22;52067;50.710;14.492;2022-10-16T04:58:52;14.04;91.30
65470;DHT22;52067;50.710;14.492;2022-10-16T05:01:18;14.11;91.18
65470;DHT22;52067;50.710;14.492;2022-10-16T05:03:43;13.98;91.51
65470;DHT22;52067;50.710;14.492;2022-10-16T05:06:08;14.05;91.59
65470;DHT22;52067;50.710;14.492;2022-10-16T05:08:33;14.04;91.38
65470;DHT22;52067;50.710;14.492;2022-10-16T05:10:59;14.12;91.42
65470;DHT22;52067;50.710;14.492;2022-10-16T05:13:24;14.08;91.51
65470;DHT22;52067;50.710;14.492;2022-10-16T05:15:50;14.22;91.23
65470;DHT22;52067;50.710;14.492;2022-10-16T05:18:15;14.10;91.04
65470;DHT22;52067;50.710;14.492;2022-10-16T05:20:41;14.11;91.13
65470;DHT22;52067;50.710;14.492;2022-10-16T05:23:06;14.25;90.87
65470;DHT22;52067;50.710;14.492;2022-10-16T05:25:32;14.32;90.45
65470;DHT22;52067;50.710;14.492;2022-10-16T05:27:57;14.39;90.31
65470;DHT22;52067;50.710;14.492;2022-10-16T05:30:22;14.45;90.21
65470;DHT22;52067;50.710;14.492;2022-10-16T05:32:48;14.48;89.75
65470;DHT22;52067;50.710;14.492;2022-10-16T05:35:14;14.38;89.98
65470;DHT22;52067;50.710;14.492;2022-10-16T05:37:39;14.33;89.81
65470;DHT22;52067;50.710;14.492;2022-10-16T05:40:04;14.18;90.49
65470;DHT22;52067;50.710;14.492;2022-10-16T05:42:30;14.25;90.34
65470;DHT22;52067;50.710;14.492;2022-10-16T05:44:55;14.08;91.14
65470;DHT22;52067;50.710;14.492;2022-10-16T05:47:20;14.12;90.75
65470;DHT22;52067;50.710;14.492;2022-10-16T05:49:46;14.08;90.86
65470;DHT22;52067;50.710;14.492;2022-10-16T05:52:11;14.11;90.92
65470;DHT22;52067;50.710;14.492;2022-10-16T05:54:36;14.12;90.80
65470;DHT22;52067;50.710;14.492;2022-10-16T05:57:02;14.01;91.25
65470;DHT22;52067;50.710;14.492;2022-10-16T05:59:27;14.02;91.32
65470;DHT22;52067;50.710;14.492;2022-10-16T06:01:52;14.01;91.50
65470;DHT22;52067;50.710;14.492;2022-10-16T06:04:18;14.05;91.50
65470;DHT22;52067;50.710;14.492;2022-10-16T06:06:43;14.01;91.51
65470;DHT22;52067;50.710;14.492;2022-10-16T06:09:09;13.98;91.47
65470;DHT22;52067;50.710;14.492;2022-10-16T06:11:34;14.04;91.66
65470;DHT22;52067;50.710;14.492;2022-10-16T06:14:00;13.88;91.85
65470;DHT22;52067;50.710;14.492;2022-10-16T06:16:31;14.04;92.03
65470;DHT22;52067;50.710;14.492;2022-10-16T06:18:57;14.01;91.57
65470;DHT22;52067;50.710;14.492;2022-10-16T06:21:24;14.01;91.63
65470;DHT22;52067;50.710;14.492;2022-10-16T06:23:50;13.80;92.21
65470;DHT22;52067;50.710;14.492;2022-10-16T06:26:16;13.83;92.47
65470;DHT22;52067;50.710;14.492;2022-10-16T06:28:42;14.11;92.15
65470;DHT22;52067;50.710;14.492;2022-10-16T06:31:08;14.14;91.73
65470;DHT22;52067;50.710;14.492;2022-10-16T06:33:33;14.25;91.48
65470;DHT22;52067;50.710;14.492;2022-10-16T06:36:03;14.20;91.67
65470;DHT22;52067;50.710;14.492;2022-10-16T06:38:28;14.39;91.23
65470;DHT22;52067;50.710;14.492;2022-10-16T06:40:53;14.41;91.09
65470;DHT22;52067;50.710;14.492;2022-10-16T06:43:19;14.46;91.12
65470;DHT22;52067;50.710;14.492;2022-10-16T06:45:49;14.39;90.99
65470;DHT22;52067;50.710;14.492;2022-10-16T06:48:15;14.35;91.71
65470;DHT22;52067;50.710;14.492;2022-10-16T06:50:40;14.22;91.70
65470;DHT22;52067;50.710;14.492;2022-10-16T06:53:05;14.45;91.77
65470;DHT22;52067;50.710;14.492;2022-10-16T06:55:30;14.66;91.29
65470;DHT22;52067;50.710;14.492;2022-10-16T06:57:56;14.81;90.85
65470;DHT22;52067;50.710;14.492;2022-10-16T07:00:21;14.83;90.70
65470;DHT22;52067;50.710;14.492;2022-10-16T07:02:46;14.89;90.64
65470;DHT22;52067;50.710;14.492;2022-10-16T07:05:12;14.90;90.49
65470;DHT22;52067;50.710;14.492;2022-10-16T07:07:37;15.06;90.37
65470;DHT22;52067;50.710;14.492;2022-10-16T07:10:03;15.03;90.21
65470;DHT22;52067;50.710;14.492;2022-10-16T07:12:28;15.11;90.26
65470;DHT22;52067;50.710;14.492;2022-10-16T07:14:53;15.24;90.12
65470;DHT22;52067;50.710;14.492;2022-10-16T07:17:19;15.38;89.78
65470;DHT22;52067;50.710;14.492;2022-10-16T07:19:45;15.51;89.29
65470;DHT22;52067;50.710;14.492;2022-10-16T07:22:10;15.58;88.93
65470;DHT22;52067;50.710;14.492;2022-10-16T07:24:35;15.61;89.30
65470;DHT22;52067;50.710;14.492;2022-10-16T07:27:00;15.62;89.64
65470;DHT22;52067;50.710;14.492;2022-10-16T07:29:26;15.79;88.95
65470;DHT22;52067;50.710;14.492;2022-10-16T07:31:51;15.89;88.69
65470;DHT22;52067;50.710;14.492;2022-10-16T07:34:17;15.85;88.81
65470;DHT22;52067;50.710;14.492;2022-10-16T07:36:42;15.92;88.45
65470;DHT22;52067;50.710;14.492;2022-10-16T07:39:07;16.03;88.08
65470;DHT22;52067;50.710;14.492;2022-10-16T07:41:33;16.23;87.77
65470;DHT22;52067;50.710;14.492;2022-10-16T07:44:01;16.20;87.47
65470;DHT22;52067;50.710;14.492;2022-10-16T07:46:27;16.18;87.47
65470;DHT22;52067;50.710;14.492;2022-10-16T07:48:52;16.18;87.10
65470;DHT22;52067;50.710;14.492;2022-10-16T07:51:19;16.27;87.09
65470;DHT22;52067;50.710;14.492;2022-10-16T07:53:45;16.20;86.64
65470;DHT22;52067;50.710;14.492;2022-10-16T07:56:11;16.23;86.72
65470;DHT22;52067;50.710;14.492;2022-10-16T07:58:36;16.18;86.61
65470;DHT22;52067;50.710;14.492;2022-10-16T08:01:06;16.10;86.85
65470;DHT22;52067;50.710;14.492;2022-10-16T08:03:32;15.90;87.21
65470;DHT22;52067;50.710;14.492;2022-10-16T08:06:01;15.83;87.73
65470;DHT22;52067;50.710;14.492;2022-10-16T08:08:26;15.73;88.12
65470;DHT22;52067;50.710;14.492;2022-10-16T08:10:52;15.90;87.89
65470;DHT22;52067;50.710;14.492;2022-10-16T08:13:17;16.05;87.71
65470;DHT22;52067;50.710;14.492;2022-10-16T08:15:43;15.90;88.57
65470;DHT22;52067;50.710;14.492;2022-10-16T08:18:09;15.99;87.74
65470;DHT22;52067;50.710;14.492;2022-10-16T08:20:34;16.23;87.16
65470;DHT22;52067;50.710;14.492;2022-10-16T08:23:00;16.37;86.92
65470;DHT22;52067;50.710;14.492;2022-10-16T08:25:25;16.47;86.51
65470;DHT22;52067;50.710;14.492;2022-10-16T08:27:50;16.74;86.18
65470;DHT22;52067;50.710;14.492;2022-10-16T08:30:16;16.78;86.14
65470;DHT22;52067;50.710;14.492;2022-10-16T08:32:42;16.76;86.20
65470;DHT22;52067;50.710;14.492;2022-10-16T08:35:11;17.09;85.07
65470;DHT22;52067;50.710;14.492;2022-10-16T08:37:36;17.20;84.30
65470;DHT22;52067;50.710;14.492;2022-10-16T08:40:02;17.33;84.14
65470;DHT22;52067;50.710;14.492;2022-10-16T08:42:30;17.30;83.83
65470;DHT22;52067;50.710;14.492;2022-10-16T08:47:26;17.27;84.84
65470;DHT22;52067;50.710;14.492;2022-10-16T08:50:00;17.47;84.29
65470;DHT22;52067;50.710;14.492;2022-10-16T08:52:30;17.19;84.92
65470;DHT22;52067;50.710;14.492;2022-10-16T08:54:57;17.27;84.25
65470;DHT22;52067;50.710;14.492;2022-10-16T08:57:24;17.20;84.24
65470;DHT22;52067;50.710;14.492;2022-10-16T08:59:49;17.15;84.32
65470;DHT22;52067;50.710;14.492;2022-10-16T09:02:26;17.02;85.54
65470;DHT22;52067;50.710;14.492;2022-10-16T09:07:31;17.19;85.09
65470;DHT22;52067;50.710;14.492;2022-10-16T09:10:04;17.39;84.56
65470;DHT22;52067;50.710;14.492;2022-10-16T09:15:35;17.09;85.16
65470;DHT22;52067;50.710;14.492;2022-10-16T09:20:31;17.24;85.30
65470;DHT22;52067;50.710;14.492;2022-10-16T09:25:30;17.39;84.92
65470;DHT22;52067;50.710;14.492;2022-10-16T09:27:56;17.54;84.86
65470;DHT22;52067;50.710;14.492;2022-10-16T09:30:21;17.47;85.30
65470;DHT22;52067;50.710;14.492;2022-10-16T09:32:48;17.61;84.29
65470;DHT22;52067;50.710;14.492;2022-10-16T09:35:19;17.71;83.68
65470;DHT22;52067;50.710;14.492;2022-10-16T09:37:47;17.92;83.33
65470;DHT22;52067;50.710;14.492;2022-10-16T09:40:13;17.87;83.03
65470;DHT22;52067;50.710;14.492;2022-10-16T09:42:48;17.95;83.11
65470;DHT22;52067;50.710;14.492;2022-10-16T09:45:20;18.16;82.65
65470;DHT22;52067;50.710;14.492;2022-10-16T09:47:46;18.16;82.81
65470;DHT22;52067;50.710;14.492;2022-10-16T09:50:22;17.90;84.34
65470;DHT22;52067;50.710;14.492;2022-10-16T09:52:48;18.29;83.16
65470;DHT22;52067;50.710;14.492;2022-10-16T09:55:14;18.38;82.10
65470;DHT22;52067;50.710;14.492;2022-10-16T09:57:50;18.36;81.44
65470;DHT22;52067;50.710;14.492;2022-10-16T10:00:15;18.61;81.00
65470;DHT22;52067;50.710;14.492;2022-10-16T10:02:41;18.83;80.45
65470;DHT22;52067;50.710;14.492;2022-10-16T10:05:16;19.14;80.46
65470;DHT22;52067;50.710;14.492;2022-10-16T10:07:43;19.06;78.89
65470;DHT22;52067;50.710;14.492;2022-10-16T10:10:24;18.83;78.48
65470;DHT22;52067;50.710;14.492;2022-10-16T10:12:50;18.77;78.88
65470;DHT22;52067;50.710;14.492;2022-10-16T10:15:16;18.69;79.43
65470;DHT22;52067;50.710;14.492;2022-10-16T10:17:52;19.28;78.20
65470;DHT22;52067;50.710;14.492;2022-10-16T10:20:22;19.27;77.90
65470;DHT22;52067;50.710;14.492;2022-10-16T10:22:48;19.38;77.13
65470;DHT22;52067;50.710;14.492;2022-10-16T10:38:16;19.90;75.70
65470;DHT22;52067;50.710;14.492;2022-10-16T10:45:58;20.09;75.72
65470;DHT22;52067;50.710;14.492;2022-10-16T10:48:28;19.97;75.59
65470;DHT22;52067;50.710;14.492;2022-10-16T10:51:07;20.09;75.19
65470;DHT22;52067;50.710;14.492;2022-10-16T11:04:17;20.12;75.69
65470;DHT22;52067;50.710;14.492;2022-10-16T11:06:49;20.06;75.90
65470;DHT22;52067;50.710;14.492;2022-10-16T11:09:17;20.20;75.19
65470;DHT22;52067;50.710;14.492;2022-10-16T11:16:39;20.21;74.77
65470;DHT22;52067;50.710;14.492;2022-10-16T11:19:10;20.26;74.43
65470;DHT22;52067;50.710;14.492;2022-10-16T11:21:39;20.26;74.25
65470;DHT22;52067;50.710;14.492;2022-10-16T11:24:14;20.71;73.34
65470;DHT22;52067;50.710;14.492;2022-10-16T11:26:42;20.82;72.03
65470;DHT22;52067;50.710;14.492;2022-10-16T11:29:17;20.64;73.86
65470;DHT22;52067;50.710;14.492;2022-10-16T11:31:48;20.78;73.68
65470;DHT22;52067;50.710;14.492;2022-10-16T11:39:22;20.95;72.49
65470;DHT22;52067;50.710;14.492;2022-10-16T11:44:20;21.10;71.80
65470;DHT22;52067;50.710;14.492;2022-10-16T11:46:51;21.18;71.82
65470;DHT22;52067;50.710;14.492;2022-10-16T11:49:21;21.36;71.28
65470;DHT22;52067;50.710;14.492;2022-10-16T11:51:53;21.32;71.71
65470;DHT22;52067;50.710;14.492;2022-10-16T11:54:22;21.74;70.32
65470;DHT22;52067;50.710;14.492;2022-10-16T11:56:50;21.90;69.16
65470;DHT22;52067;50.710;14.492;2022-10-16T12:01:53;21.75;68.40
65470;DHT22;52067;50.710;14.492;2022-10-16T12:06:59;22.28;67.55
65470;DHT22;52067;50.710;14.492;2022-10-16T12:09:29;22.30;67.21
65470;DHT22;52067;50.710;14.492;2022-10-16T12:11:54;22.04;68.79
65470;DHT22;52067;50.710;14.492;2022-10-16T12:14:34;22.12;67.86
65470;DHT22;52067;50.710;14.492;2022-10-16T12:17:03;21.29;68.18
65470;DHT22;52067;50.710;14.492;2022-10-16T12:19:31;21.16;71.34
65470;DHT22;52067;50.710;14.492;2022-10-16T12:21:58;21.50;68.24
65470;DHT22;52067;50.710;14.492;2022-10-16T12:24:39;21.47;68.86
65470;DHT22;52067;50.710;14.492;2022-10-16T12:27:19;21.60;68.67
65470;DHT22;52067;50.710;14.492;2022-10-16T12:29:46;21.61;68.92
65470;DHT22;52067;50.710;14.492;2022-10-16T12:32:21;22.11;67.69
65470;DHT22;52067;50.710;14.492;2022-10-16T12:34:48;22.26;67.41
65470;DHT22;52067;50.710;14.492;2022-10-16T12:37:26;22.26;66.78
65470;DHT22;52067;50.710;14.492;2022-10-16T12:39:53;22.36;66.94
65470;DHT22;52067;50.710;14.492;2022-10-16T12:42:23;22.28;64.60
65470;DHT22;52067;50.710;14.492;2022-10-16T12:44:49;22.61;66.09
65470;DHT22;52067;50.710;14.492;2022-10-16T12:49:50;22.33;66.47
65470;DHT22;52067;50.710;14.492;2022-10-16T12:52:23;21.88;66.77
65470;DHT22;52067;50.710;14.492;2022-10-16T12:54:50;21.71;67.18
65470;DHT22;52067;50.710;14.492;2022-10-16T12:58:19;21.43;68.18
65470;DHT22;52067;50.710;14.492;2022-10-16T13:10:28;20.91;71.43
65470;DHT22;52067;50.710;14.492;2022-10-16T13:15:31;21.22;71.54
65470;DHT22;52067;50.710;14.492;2022-10-16T13:18:11;21.29;71.75
65470;DHT22;52067;50.710;14.492;2022-10-16T13:28:03;21.60;70.41
65470;DHT22;52067;50.710;14.492;2022-10-16T13:31:14;21.57;70.81
65470;DHT22;52067;50.710;14.492;2022-10-16T13:33:30;21.55;70.68
65470;DHT22;52067;50.710;14.492;2022-10-16T13:35:56;21.55;69.76
65470;DHT22;52067;50.710;14.492;2022-10-16T13:38:22;21.53;70.34
65470;DHT22;52067;50.710;14.492;2022-10-16T13:40:55;21.70;69.30
65470;DHT22;52067;50.710;14.492;2022-10-16T13:44:07;21.77;68.15
65470;DHT22;52067;50.710;14.492;2022-10-16T13:46:10;21.88;68.85
65470;DHT22;52067;50.710;14.492;2022-10-16T13:48:36;21.94;68.91
65470;DHT22;52067;50.710;14.492;2022-10-16T13:53:34;22.02;68.89
65470;DHT22;52067;50.710;14.492;2022-10-16T13:55:59;22.21;67.01
65470;DHT22;52067;50.710;14.492;2022-10-16T13:58:25;22.67;66.39
65470;DHT22;52067;50.710;14.492;2022-10-16T14:01:00;23.54;64.90
65470;DHT22;52067;50.710;14.492;2022-10-16T14:03:26;24.13;62.85
65470;DHT22;52067;50.710;14.492;2022-10-16T14:05:56;25.30;59.89
65470;DHT22;52067;50.710;14.492;2022-10-16T14:08:23;24.91;59.45
65470;DHT22;52067;50.710;14.492;2022-10-16T14:10:50;24.43;61.55
65470;DHT22;52067;50.710;14.492;2022-10-16T14:13:21;23.83;62.19
65470;DHT22;52067;50.710;14.492;2022-10-16T14:15:50;24.09;62.70
65470;DHT22;52067;50.710;14.492;2022-10-16T14:18:18;25.31;59.16
65470;DHT22;52067;50.710;14.492;2022-10-16T14:20:44;26.35;55.73
65470;DHT22;52067;50.710;14.492;2022-10-16T14:23:23;26.60;55.53
65470;DHT22;52067;50.710;14.492;2022-10-16T14:25:48;27.69;51.55
65470;DHT22;52067;50.710;14.492;2022-10-16T14:30:53;27.07;52.31
65470;DHT22;52067;50.710;14.492;2022-10-16T14:36:04;27.00;52.09
65470;DHT22;52067;50.710;14.492;2022-10-16T14:38:30;27.63;50.53
65470;DHT22;52067;50.710;14.492;2022-10-16T14:40:57;26.55;53.60
65470;DHT22;52067;50.710;14.492;2022-10-16T14:43:26;25.94;55.26
65470;DHT22;52067;50.710;14.492;2022-10-16T14:45:54;25.43;56.12
65470;DHT22;52067;50.710;14.492;2022-10-16T14:48:20;24.58;58.58
65470;DHT22;52067;50.710;14.492;2022-10-16T14:50:46;24.10;60.14
65470;DHT22;52067;50.710;14.492;2022-10-16T14:53:11;23.89;60.46
65470;DHT22;52067;50.710;14.492;2022-10-16T14:55:37;23.22;62.51
65470;DHT22;52067;50.710;14.492;2022-10-16T14:58:03;22.93;65.01
65470;DHT22;52067;50.710;14.492;2022-10-16T15:00:28;22.52;66.53
65470;DHT22;52067;50.710;14.492;2022-10-16T15:02:53;22.81;65.22
65470;DHT22;52067;50.710;14.492;2022-10-16T15:05:20;22.53;66.41
65470;DHT22;52067;50.710;14.492;2022-10-16T15:07:47;22.64;65.66
65470;DHT22;52067;50.710;14.492;2022-10-16T15:10:13;21.98;68.63
65470;DHT22;52067;50.710;14.492;2022-10-16T15:12:38;21.99;67.94
65470;DHT22;52067;50.710;14.492;2022-10-16T15:15:37;21.92;68.89
65470;DHT22;52067;50.710;14.492;2022-10-16T15:17:56;21.43;70.89
65470;DHT22;52067;50.710;14.492;2022-10-16T15:20:25;21.16;72.15
65470;DHT22;52067;50.710;14.492;2022-10-16T15:22:50;20.75;74.54
65470;DHT22;52067;50.710;14.492;2022-10-16T15:27:53;20.03;77.46
65470;DHT22;52067;50.710;14.492;2022-10-16T15:30:18;20.20;76.91
65470;DHT22;52067;50.710;14.492;2022-10-16T15:32:44;20.30;76.70
65470;DHT22;52067;50.710;14.492;2022-10-16T15:35:09;20.16;77.15
65470;DHT22;52067;50.710;14.492;2022-10-16T15:37:34;20.00;77.70
65470;DHT22;52067;50.710;14.492;2022-10-16T15:39:59;19.56;79.12
65470;DHT22;52067;50.710;14.492;2022-10-16T15:42:25;19.76;78.55
65470;DHT22;52067;50.710;14.492;2022-10-16T15:44:50;19.61;79.04
65470;DHT22;52067;50.710;14.492;2022-10-16T15:47:15;19.49;79.81
65470;DHT22;52067;50.710;14.492;2022-10-16T15:49:41;19.45;80.01
65470;DHT22;52067;50.710;14.492;2022-10-16T15:52:06;19.38;80.10
65470;DHT22;52067;50.710;14.492;2022-10-16T15:54:31;19.27;80.52
65470;DHT22;52067;50.710;14.492;2022-10-16T15:56:56;19.12;80.97
65470;DHT22;52067;50.710;14.492;2022-10-16T15:59:22;19.04;81.23
65470;DHT22;52067;50.710;14.492;2022-10-16T16:01:47;19.17;80.84
65470;DHT22;52067;50.710;14.492;2022-10-16T16:04:12;19.19;80.79
65470;DHT22;52067;50.710;14.492;2022-10-16T16:06:37;19.11;80.72
65470;DHT22;52067;50.710;14.492;2022-10-16T16:09:04;19.07;80.70
65470;DHT22;52067;50.710;14.492;2022-10-16T16:11:30;19.10;80.76
65470;DHT22;52067;50.710;14.492;2022-10-16T16:13:57;19.17;80.41
65470;DHT22;52067;50.710;14.492;2022-10-16T16:16:22;18.81;81.55
65470;DHT22;52067;50.710;14.492;2022-10-16T16:18:47;18.70;82.23
65470;DHT22;52067;50.710;14.492;2022-10-16T16:21:14;18.73;82.03
65470;DHT22;52067;50.710;14.492;2022-10-16T16:23:40;18.83;81.89
65470;DHT22;52067;50.710;14.492;2022-10-16T16:28:37;18.35;83.93
65470;DHT22;52067;50.710;14.492;2022-10-16T16:31:02;18.02;84.58
65470;DHT22;52067;50.710;14.492;2022-10-16T16:33:28;17.84;85.56
65470;DHT22;52067;50.710;14.492;2022-10-16T16:35:57;17.92;85.00
65470;DHT22;52067;50.710;14.492;2022-10-16T16:38:22;17.82;84.90
65470;DHT22;52067;50.710;14.492;2022-10-16T16:40:47;17.74;84.93
65470;DHT22;52067;50.710;14.492;2022-10-16T16:43:13;17.71;84.78
65470;DHT22;52067;50.710;14.492;2022-10-16T16:45:38;17.91;84.26
65470;DHT22;52067;50.710;14.492;2022-10-16T16:48:03;17.85;83.94
65470;DHT22;52067;50.710;14.492;2022-10-16T16:50:31;17.82;84.35
65470;DHT22;52067;50.710;14.492;2022-10-16T16:52:59;17.81;83.79
65470;DHT22;52067;50.710;14.492;2022-10-16T16:55:25;17.80;83.40
65470;DHT22;52067;50.710;14.492;2022-10-16T16:57:50;17.70;83.49
65470;DHT22;52067;50.710;14.492;2022-10-16T17:00:15;17.59;83.68
65470;DHT22;52067;50.710;14.492;2022-10-16T17:02:40;17.51;84.34
65470;DHT22;52067;50.710;14.492;2022-10-16T17:05:08;17.36;84.40